Time;durP1;ratioP1;P1;durP2;ratioP2;P2;SDS_P1;SDS_P2;PMS_P1;PMS_P2;Temp;Humidity;BMP_temperature;BMP_pressure;BME280_temperature;BME280_humidity;BME280_pressure;Samples;Min_cycle;Max_cycle;Signal;HPM_P1;HPM_P2
2021/12/04 00:01:26;;;;;;;15.32;8.20;;;;;;;-147.53;100.00;57128.34;15290524;19;20022;-60
2021/12/04 00:06:31;;;;;;;14.77;7.97;;;;;;;-147.53;100.00;57128.34;15291230;19;20018;-60
2021/12/04 00:11:36;;;;;;;17.02;8.65;;;;;;;-147.53;100.00;57128.34;15287810;19;20018;-61
2021/12/04 00:16:38;;;;;;;19.60;8.93;;;;;;;-147.53;100.00;57128.34;15288844;19;20014;-60
2021/12/04 00:21:40;;;;;;;16.77;9.07;;;;;;;-147.53;100.00;57128.34;15288570;19;20616;-60
2021/12/04 00:26:43;;;;;;;18.40;9.63;;;;;;;-147.53;100.00;57128.34;15287268;19;20015;-59
2021/12/04 00:31:54;;;;;;;14.60;8.02;;;;;;;-147.53;100.00;57128.34;15287686;19;20629;-60
2021/12/04 00:52:47;;;;;;;18.90;9.20;;;;;;;-147.53;100.00;57128.34;15289401;19;21034;-60
2021/12/04 00:57:49;;;;;;;19.50;9.23;;;;;;;-147.53;100.00;57128.34;15288732;19;20098;-60
2021/12/04 01:02:51;;;;;;;19.20;9.23;;;;;;;-147.53;100.00;57128.34;15286651;19;20081;-59
2021/12/04 01:07:53;;;;;;;16.33;8.65;;;;;;;-147.53;100.00;57128.34;15284616;19;20018;-60
2021/12/04 01:13:00;;;;;;;19.35;9.10;;;;;;;-147.53;100.00;57128.34;15286395;19;20712;-59
2021/12/04 01:18:01;;;;;;;19.27;9.55;;;;;;;-147.53;100.00;57128.34;15286254;19;20098;-59
2021/12/04 01:23:03;;;;;;;19.05;9.00;;;;;;;-147.53;100.00;57128.34;15296779;19;20032;-60
2021/12/04 01:28:05;;;;;;;19.35;9.90;;;;;;;-147.53;100.00;57128.34;15298402;19;20775;-60
2021/12/04 01:33:07;;;;;;;21.75;10.23;;;;;;;-147.53;100.00;57128.34;15299516;19;20018;-60
2021/12/04 01:38:10;;;;;;;19.38;10.73;;;;;;;-147.53;100.00;57128.34;15301252;19;20175;-60
2021/12/04 01:43:13;;;;;;;19.67;9.88;;;;;;;-147.53;100.00;57128.34;15301258;19;20375;-61
2021/12/04 01:48:14;;;;;;;16.70;7.80;;;;;;;-147.53;100.00;57128.34;15299199;19;20014;-60
2021/12/04 01:53:16;;;;;;;17.75;8.95;;;;;;;-147.53;100.00;57128.34;15300654;19;20014;-59
2021/12/04 01:58:18;;;;;;;18.38;8.32;;;;;;;-147.53;100.00;57128.34;15299736;19;20022;-61
2021/12/04 02:03:21;;;;;;;15.48;8.27;;;;;;;-147.53;100.00;57128.34;15297271;19;20029;-60
2021/12/04 02:08:23;;;;;;;21.08;9.40;;;;;;;-147.53;100.00;57128.34;15295172;19;20017;-60
2021/12/04 02:13:26;;;;;;;20.20;8.73;;;;;;;-147.53;100.00;57128.34;15297911;19;20017;-60
2021/12/04 02:18:28;;;;;;;18.15;9.30;;;;;;;-147.53;100.00;57128.34;15295723;19;20010;-60
2021/12/04 02:23:30;;;;;;;21.67;10.20;;;;;;;-147.53;100.00;57128.34;15298259;19;20037;-59
2021/12/04 02:28:32;;;;;;;16.58;8.57;;;;;;;-147.53;100.00;57128.34;15295355;19;20113;-60
2021/12/04 02:33:33;;;;;;;19.02;9.20;;;;;;;-147.53;100.00;57128.34;15295714;19;20093;-59
2021/12/04 02:38:35;;;;;;;18.90;8.75;;;;;;;-147.53;100.00;57128.34;15296844;19;20015;-60
2021/12/04 02:43:37;;;;;;;18.05;9.55;;;;;;;-147.53;100.00;57128.34;15296128;19;20241;-60
2021/12/04 02:48:39;;;;;;;18.92;8.43;;;;;;;-147.53;100.00;57128.34;15290933;19;20002;-60
2021/12/04 02:53:41;;;;;;;15.98;8.55;;;;;;;-147.53;100.00;57128.34;15296446;19;20090;-60
2021/12/04 02:58:50;;;;;;;16.83;9.43;;;;;;;-147.53;100.00;57128.34;15296497;19;20478;-60
2021/12/04 03:03:51;;;;;;;15.85;8.80;;;;;;;-147.53;100.00;57128.34;15293830;19;20011;-59
2021/12/04 03:08:53;;;;;;;14.98;7.72;;;;;;;-147.53;100.00;57128.34;15291319;19;20074;-59
2021/12/04 03:13:55;;;;;;;19.75;8.75;;;;;;;-147.53;100.00;57128.34;15293428;19;20014;-59
2021/12/04 03:18:56;;;;;;;16.40;8.60;;;;;;;-147.53;100.00;57128.34;15294218;19;20078;-59
2021/12/04 03:24:02;;;;;;;17.23;8.40;;;;;;;-147.53;100.00;57128.34;15294503;19;20018;-60
2021/12/04 03:29:08;;;;;;;15.07;8.23;;;;;;;-147.53;100.00;57128.34;15292159;19;20078;-60
2021/12/04 03:44:50;;;;;;;18.30;8.48;;;;;;;-147.53;100.00;57128.34;15291586;19;20014;-60
2021/12/04 03:49:52;;;;;;;19.25;9.60;;;;;;;-147.53;100.00;57128.34;15288424;19;20109;-60
2021/12/04 03:54:53;;;;;;;17.55;9.05;;;;;;;-147.53;100.00;57128.34;15292644;19;20018;-58
2021/12/04 03:59:55;;;;;;;18.98;9.55;;;;;;;-147.53;100.00;57128.34;15292287;19;20018;-60
2021/12/04 04:04:57;;;;;;;21.38;9.55;;;;;;;-147.53;100.00;57128.34;15292432;19;20093;-60
2021/12/04 04:09:59;;;;;;;21.60;10.18;;;;;;;-147.53;100.00;57128.34;15288004;19;20085;-59
2021/12/04 04:15:00;;;;;;;18.45;9.23;;;;;;;-147.53;100.00;57128.34;15291046;19;20102;-58
2021/12/04 04:20:03;;;;;;;19.65;10.35;;;;;;;-147.53;100.00;57128.34;15289302;19;20017;-59
2021/12/04 04:25:06;;;;;;;21.30;9.82;;;;;;;-147.53;100.00;57128.34;15289908;19;20078;-60
2021/12/04 04:30:14;;;;;;;22.17;11.30;;;;;;;-147.53;100.00;57128.34;15286656;19;20022;-60
2021/12/04 04:35:20;;;;;;;25.42;12.00;;;;;;;-147.53;100.00;57128.34;15288860;19;20098;-60
2021/12/04 05:17:29;;;;;;;25.92;12.88;;;;;;;-147.53;100.00;57128.34;15303011;19;20109;-60
2021/12/04 05:22:32;;;;;;;28.45;14.05;;;;;;;-147.53;100.00;57128.34;15301285;19;20016;-59
2021/12/04 05:27:33;;;;;;;27.67;13.32;;;;;;;-147.53;100.00;57128.34;15298975;19;20018;-60
2021/12/04 05:32:35;;;;;;;27.02;13.05;;;;;;;-147.53;100.00;57128.34;15301142;19;20018;-59
2021/12/04 05:37:37;;;;;;;28.60;14.60;;;;;;;-147.53;100.00;57128.34;15299802;19;20569;-60
2021/12/04 05:42:38;;;;;;;29.40;14.45;;;;;;;-147.53;100.00;57128.34;15300611;19;20022;-60
2021/12/04 05:47:47;;;;;;;29.77;15.02;;;;;;;-147.53;100.00;57128.34;15298868;19;20023;-60
2021/12/04 05:57:50;;;;;;;31.33;14.68;;;;;;;-147.53;100.00;57128.34;15299853;19;20547;-60
2021/12/04 06:02:52;;;;;;;30.05;14.07;;;;;;;-147.53;100.00;57128.34;15301318;19;20278;-59
2021/12/04 06:07:54;;;;;;;24.10;12.70;;;;;;;-147.53;100.00;57128.34;15296190;19;20110;-58
2021/12/04 06:12:55;;;;;;;27.80;14.38;;;;;;;-147.53;100.00;57128.34;15295901;19;20040;-60
2021/12/04 06:17:57;;;;;;;30.25;15.73;;;;;;;-147.53;100.00;57128.34;15296946;19;20546;-60
2021/12/04 06:22:59;;;;;;;28.92;14.25;;;;;;;-147.53;100.00;57128.34;15298118;19;20083;-60
2021/12/04 06:28:01;;;;;;;32.40;15.75;;;;;;;-147.53;100.00;57128.34;15295614;19;20014;-59
2021/12/04 06:33:07;;;;;;;29.27;14.02;;;;;;;-147.53;100.00;57128.34;15298004;19;20021;-60
2021/12/04 06:38:11;;;;;;;37.38;16.02;;;;;;;-147.53;100.00;57128.34;15294566;19;20020;-58
2021/12/04 06:43:13;;;;;;;32.03;13.95;;;;;;;-147.53;100.00;57128.34;15294531;19;20018;-60
2021/12/04 06:48:19;;;;;;;29.80;14.20;;;;;;;-147.53;100.00;57128.34;15294931;19;20011;-59
2021/12/04 06:58:54;;;;;;;36.67;16.17;;;;;;;-147.53;100.00;57128.34;15292361;19;20017;-60
2021/12/04 07:03:56;;;;;;;35.28;16.48;;;;;;;-147.53;100.00;57128.34;15295122;19;20090;-60
2021/12/04 07:08:58;;;;;;;34.42;15.35;;;;;;;-147.53;100.00;57128.34;15292184;19;20106;-59
2021/12/04 07:14:03;;;;;;;33.45;15.50;;;;;;;-147.53;100.00;57128.34;15295250;19;20010;-59
2021/12/04 07:19:04;;;;;;;31.27;15.30;;;;;;;-147.53;100.00;57128.34;15293414;19;20018;-60
2021/12/04 07:24:06;;;;;;;37.30;14.60;;;;;;;-147.53;100.00;57128.34;15292859;19;20031;-59
2021/12/04 07:29:08;;;;;;;34.83;16.20;;;;;;;-147.53;100.00;57128.34;15289145;19;20022;-60
2021/12/04 07:34:10;;;;;;;31.50;15.65;;;;;;;-147.53;100.00;57128.34;15292757;19;20019;-60
2021/12/04 07:39:12;;;;;;;34.22;14.52;;;;;;;-147.53;100.00;57128.34;15292341;19;20085;-60
2021/12/04 07:44:13;;;;;;;35.92;16.90;;;;;;;-147.53;100.00;57128.34;15292417;19;20018;-60
2021/12/04 07:49:15;;;;;;;39.53;16.60;;;;;;;-147.53;100.00;57128.34;15290586;19;20014;-60
2021/12/04 07:54:17;;;;;;;37.65;16.77;;;;;;;-147.53;100.00;57128.34;15290246;19;20038;-60
2021/12/04 07:59:19;;;;;;;33.05;15.15;;;;;;;-147.53;100.00;57128.34;15289771;19;20067;-58
2021/12/04 08:04:21;;;;;;;30.75;14.15;;;;;;;-147.53;100.00;57128.34;15289021;19;20019;-58
2021/12/04 08:09:22;;;;;;;30.58;14.98;;;;;;;-147.53;100.00;57128.34;15286175;19;20101;-59
2021/12/04 08:14:24;;;;;;;34.28;15.57;;;;;;;-147.53;100.00;57128.34;15290261;19;20011;-59
2021/12/04 08:19:26;;;;;;;31.73;13.50;;;;;;;-147.53;100.00;57128.34;15289959;19;20474;-58
2021/12/04 08:24:27;;;;;;;33.20;15.82;;;;;;;-147.53;100.00;57128.34;15290263;19;20099;-61
2021/12/04 08:29:30;;;;;;;34.65;14.88;;;;;;;-147.53;100.00;57128.34;15285690;19;20109;-60
2021/12/04 08:34:32;;;;;;;35.53;15.25;;;;;;;-147.53;100.00;57128.34;15287914;19;20107;-59
2021/12/04 08:39:33;;;;;;;31.58;13.68;;;;;;;-147.53;100.00;57128.34;15288847;19;20086;-59
2021/12/04 08:44:37;;;;;;;29.02;13.93;;;;;;;-147.53;100.00;57128.34;15290523;19;20015;-61
2021/12/04 08:49:39;;;;;;;30.40;13.60;;;;;;;-147.53;100.00;57128.34;15284979;19;20010;-61
2021/12/04 08:54:41;;;;;;;29.23;12.68;;;;;;;-147.53;100.00;57128.34;15288131;19;20109;-59
2021/12/04 08:59:45;;;;;;;35.70;14.07;;;;;;;-147.53;100.00;57128.34;15287340;19;20081;-61
2021/12/04 09:04:47;;;;;;;33.90;15.95;;;;;;;-147.53;100.00;57128.34;15287785;19;20011;-61
2021/12/04 09:09:54;;;;;;;34.65;13.82;;;;;;;-147.53;100.00;57128.34;15285342;19;20591;-61
2021/12/04 09:14:57;;;;;;;34.60;15.85;;;;;;;-147.53;100.00;57128.34;15287251;19;20018;-60
2021/12/04 09:19:59;;;;;;;35.92;14.82;;;;;;;-147.53;100.00;57128.34;15279128;19;20114;-61
2021/12/04 09:25:09;;;;;;;42.80;17.02;;;;;;;-147.53;100.00;57128.34;15280515;19;20090;-61
2021/12/04 10:17:54;;;;;;;41.95;16.33;;;;;;;-147.53;100.00;57128.34;15299518;19;20024;-60
2021/12/04 10:33:43;;;;;;;33.97;14.65;;;;;;;-147.53;100.00;57128.34;15295679;19;20788;-61
2021/12/04 10:38:45;;;;;;;38.40;15.32;;;;;;;-147.53;100.00;57128.34;15293849;19;20014;-61
2021/12/04 10:43:47;;;;;;;37.55;15.35;;;;;;;-147.53;100.00;57128.34;15296727;19;20673;-60
2021/12/04 10:49:03;;;;;;;33.38;15.27;;;;;;;-147.53;100.00;57128.34;15291297;19;20032;-60
2021/12/04 10:54:25;;;;;;;35.85;15.23;;;;;;;-147.53;100.00;57128.34;15291517;19;20038;-61
2021/12/04 10:59:36;;;;;;;34.03;15.45;;;;;;;-147.53;100.00;57128.34;15295592;19;20019;-59
2021/12/04 11:04:59;;;;;;;39.40;15.43;;;;;;;-147.53;100.00;57128.34;15293510;19;20106;-61
2021/12/04 11:42:36;;;;;;;32.42;13.60;;;;;;;-147.53;100.00;57128.34;15293758;19;20073;-61
2021/12/04 11:47:49;;;;;;;29.88;13.25;;;;;;;-147.53;100.00;57128.34;15294655;19;20090;-60
2021/12/04 11:52:54;;;;;;;28.58;11.98;;;;;;;-147.53;100.00;57128.34;15297189;19;20035;-59
2021/12/04 11:57:56;;;;;;;31.38;13.02;;;;;;;-147.53;100.00;57128.34;15293962;19;20014;-60
2021/12/04 12:03:11;;;;;;;28.42;13.27;;;;;;;-147.53;100.00;57128.34;15299390;19;20035;-60
2021/12/04 12:08:36;;;;;;;27.55;12.73;;;;;;;-147.53;100.00;57128.34;15295705;19;20012;-59
2021/12/04 12:13:42;;;;;;;27.80;12.20;;;;;;;-147.53;100.00;57128.34;15287032;19;20010;-60
2021/12/04 12:18:50;;;;;;;26.95;12.15;;;;;;;-147.53;100.00;57128.34;15290027;19;20078;-60
2021/12/04 12:40:21;;;;;;;24.70;12.10;;;;;;;-147.53;100.00;57128.34;15183257;19;2004116;-60
2021/12/04 12:45:33;;;;;;;27.63;12.82;;;;;;;-147.53;100.00;57128.34;15287351;19;20341;-60
2021/12/04 12:50:46;;;;;;;24.20;11.48;;;;;;;-147.53;100.00;57128.34;15284553;19;20017;-61
2021/12/04 12:55:50;;;;;;;22.38;10.95;;;;;;;-147.53;100.00;57128.34;15287476;19;20022;-60
2021/12/04 13:16:50;;;;;;;25.63;11.43;;;;;;;-147.53;100.00;57128.34;15290353;19;20297;-60
2021/12/04 13:22:00;;;;;;;25.60;11.32;;;;;;;-147.53;100.00;57128.34;15298921;19;20025;-60
2021/12/04 13:32:13;;;;;;;24.80;10.82;;;;;;;-147.53;100.00;57128.34;15299051;19;20073;-60
2021/12/04 13:37:15;;;;;;;30.65;12.48;;;;;;;-147.53;100.00;57128.34;15300390;19;20078;-61
2021/12/04 13:42:16;;;;;;;24.73;11.98;;;;;;;-147.53;100.00;57128.34;15298202;19;20077;-60
2021/12/04 13:47:18;;;;;;;29.05;13.82;;;;;;;-147.53;100.00;57128.34;15300226;19;20085;-60
2021/12/04 13:52:21;;;;;;;31.70;11.77;;;;;;;-147.53;100.00;57128.34;15296306;19;20892;-60
2021/12/04 13:57:22;;;;;;;27.27;11.52;;;;;;;-147.53;100.00;57128.34;15300030;19;20410;-60
2021/12/04 14:02:28;;;;;;;24.02;11.10;;;;;;;-147.53;100.00;57128.34;15292786;19;20010;-60
2021/12/04 14:07:30;;;;;;;23.80;11.55;;;;;;;-147.53;100.00;57128.34;15291335;19;20483;-59
2021/12/04 14:12:32;;;;;;;26.52;11.45;;;;;;;-147.53;100.00;57128.34;15289013;19;20117;-60
2021/12/04 14:17:33;;;;;;;25.02;11.63;;;;;;;-147.53;100.00;57128.34;15296228;19;20018;-60
2021/12/04 14:22:46;;;;;;;22.88;11.68;;;;;;;-147.53;100.00;57128.34;15296857;19;20086;-61
2021/12/04 14:27:49;;;;;;;24.80;11.77;;;;;;;-147.53;100.00;57128.34;15295473;19;20094;-60
2021/12/04 14:32:54;;;;;;;26.65;12.15;;;;;;;-147.53;100.00;57128.34;15296318;19;20007;-60
2021/12/04 14:38:04;;;;;;;26.00;12.77;;;;;;;-147.53;100.00;57128.34;15297031;19;20018;-59
2021/12/04 14:43:09;;;;;;;23.95;12.02;;;;;;;-147.53;100.00;57128.34;15296099;19;20078;-60
2021/12/04 14:48:16;;;;;;;22.40;12.13;;;;;;;-147.53;100.00;57128.34;15295553;19;20031;-60
2021/12/04 14:53:20;;;;;;;24.90;12.57;;;;;;;-147.53;100.00;57128.34;15296107;19;20054;-60
2021/12/04 14:58:23;;;;;;;29.38;12.82;;;;;;;-147.53;100.00;57128.34;15295859;19;20006;-60
2021/12/04 15:03:34;;;;;;;27.20;12.88;;;;;;;-147.53;100.00;57128.34;15297710;19;20010;-60
2021/12/04 15:08:39;;;;;;;20.30;11.45;;;;;;;-147.53;100.00;57128.34;15293057;19;20020;-60
2021/12/04 15:13:56;;;;;;;29.25;13.93;;;;;;;-147.53;100.00;57128.34;15294509;19;20086;-60
2021/12/04 15:19:13;;;;;;;24.90;12.00;;;;;;;-147.53;100.00;57128.34;15294475;19;20010;-60
2021/12/04 15:24:23;;;;;;;19.75;10.93;;;;;;;-147.53;100.00;57128.34;15292935;19;20481;-60
2021/12/04 15:29:29;;;;;;;25.52;11.30;;;;;;;-147.53;100.00;57128.34;15291795;19;20007;-61
2021/12/04 15:34:44;;;;;;;22.65;10.93;;;;;;;-147.53;100.00;57128.34;15292060;19;20017;-61
2021/12/04 15:39:47;;;;;;;20.08;9.48;;;;;;;-147.53;100.00;57128.34;15292650;19;20074;-60
2021/12/04 15:55:29;;;;;;;17.02;8.55;;;;;;;-147.53;100.00;57128.34;15293578;19;20035;-59
2021/12/04 16:00:34;;;;;;;15.38;8.23;;;;;;;-147.53;100.00;57128.34;15291677;19;20085;-61
2021/12/04 16:05:40;;;;;;;14.88;7.85;;;;;;;-147.53;100.00;57128.34;15291587;19;20438;-61
2021/12/04 16:10:45;;;;;;;14.93;8.07;;;;;;;-147.53;100.00;57128.34;15290511;19;20027;-60
2021/12/04 16:15:46;;;;;;;14.68;7.65;;;;;;;-147.53;100.00;57128.34;15288863;19;20488;-59
2021/12/04 16:20:49;;;;;;;16.50;8.85;;;;;;;-147.53;100.00;57128.34;15288458;19;21123;-60
2021/12/04 16:25:51;;;;;;;17.73;8.63;;;;;;;-147.53;100.00;57128.34;15288654;19;20530;-60
2021/12/04 16:30:58;;;;;;;19.80;10.70;;;;;;;-147.53;100.00;57128.34;15287283;19;20082;-61
2021/12/04 16:36:06;;;;;;;18.17;8.77;;;;;;;-147.53;100.00;57128.34;15290987;19;20482;-61
2021/12/04 16:41:11;;;;;;;18.52;8.82;;;;;;;-147.53;100.00;57128.34;15288483;19;20073;-61
2021/12/04 16:46:17;;;;;;;16.50;8.57;;;;;;;-147.53;100.00;57128.34;15289278;19;20435;-61
2021/12/04 16:56:37;;;;;;;17.80;9.35;;;;;;;-147.53;100.00;57128.34;15303707;19;20510;-61
2021/12/04 17:01:46;;;;;;;16.13;8.77;;;;;;;-147.53;100.00;57128.34;15302066;19;20010;-60
2021/12/04 17:06:52;;;;;;;15.70;8.45;;;;;;;-147.53;100.00;57128.34;15302614;19;20078;-61
2021/12/04 17:11:56;;;;;;;13.43;7.20;;;;;;;-147.53;100.00;57128.34;15301393;19;20475;-61
2021/12/04 17:17:01;;;;;;;18.20;9.57;;;;;;;-147.53;100.00;57128.34;15301293;19;20021;-60
2021/12/04 17:22:03;;;;;;;17.90;9.43;;;;;;;-147.53;100.00;57128.34;15301141;19;20031;-59
2021/12/04 17:27:07;;;;;;;16.92;8.82;;;;;;;-147.53;100.00;57128.34;15301581;19;20086;-61
2021/12/04 17:32:09;;;;;;;15.57;8.15;;;;;;;-147.53;100.00;57128.34;15299544;19;20105;-61
2021/12/04 17:37:10;;;;;;;15.85;8.75;;;;;;;-147.53;100.00;57128.34;15301404;19;20349;-60
2021/12/04 17:42:12;;;;;;;15.75;6.95;;;;;;;-147.53;100.00;57128.34;15299726;19;20022;-60
2021/12/04 17:47:14;;;;;;;16.67;7.93;;;;;;;-147.53;100.00;57128.34;15299155;19;20015;-61
2021/12/04 17:52:15;;;;;;;11.38;5.95;;;;;;;-147.53;100.00;57128.34;15296088;19;20019;-60
2021/12/04 17:57:18;;;;;;;12.63;6.78;;;;;;;-147.53;100.00;57128.34;15298090;19;20744;-60
2021/12/04 18:02:19;;;;;;;13.13;6.88;;;;;;;-147.53;100.00;57128.34;15298842;19;20090;-60
2021/12/04 18:07:24;;;;;;;10.45;5.18;;;;;;;1.65;100.00;99411.75;15298761;19;20040;-60
2021/12/04 18:12:35;;;;;;;12.68;4.88;;;;;;;1.28;100.00;99419.22;15298371;19;20090;-59
2021/12/04 18:17:36;;;;;;;12.90;6.13;;;;;;;1.06;100.00;99404.72;15298753;19;20028;-60
2021/12/04 18:22:38;;;;;;;11.52;5.13;;;;;;;0.79;100.00;99415.88;15299619;19;20676;-61
2021/12/04 18:27:40;;;;;;;11.10;4.93;;;;;;;0.62;100.00;99423.03;15297129;19;20082;-61
2021/12/04 18:32:43;;;;;;;11.38;5.18;;;;;;;0.45;100.00;99418.97;15278591;19;20027;-61
2021/12/04 18:37:45;;;;;;;12.07;5.25;;;;;;;0.34;100.00;99423.72;15154709;19;20047;-61
2021/12/04 18:42:49;;;;;;;10.65;5.38;;;;;;;0.34;100.00;99423.72;14955123;19;20694;-60
2021/12/04 18:47:57;;;;;;;12.85;5.78;;;;;;;0.03;100.00;99425.19;14974802;19;20560;-61
2021/12/04 18:53:00;;;;;;;11.65;5.95;;;;;;;-0.09;100.00;99430.75;15157106;19;20021;-60
2021/12/04 18:58:02;;;;;;;12.43;5.45;;;;;;;-0.19;100.00;99431.22;15152722;19;20353;-60
2021/12/04 19:03:10;;;;;;;11.50;6.03;;;;;;;-0.34;100.00;99425.50;15143700;19;21120;-59
2021/12/04 19:08:13;;;;;;;13.05;5.88;;;;;;;-0.32;100.00;99435.00;15148776;19;20010;-60
2021/12/04 19:13:15;;;;;;;13.40;6.28;;;;;;;-0.36;100.00;99428.88;15143758;19;20014;-59
2021/12/04 19:18:18;;;;;;;12.60;5.63;;;;;;;-0.45;100.00;99428.50;15155113;19;20589;-59
2021/12/04 19:23:21;;;;;;;12.77;5.93;;;;;;;-0.42;100.00;99430.31;15161599;19;20034;-58
2021/12/04 19:28:23;;;;;;;15.32;6.95;;;;;;;-0.43;100.00;99433.72;15155704;19;20015;-59
2021/12/04 19:54:33;;;;;;;12.80;4.50;;;;;;;-0.37;100.00;99439.09;15156202;19;19915;-59
2021/12/04 19:59:38;;;;;;;16.23;7.32;;;;;;;-0.39;100.00;99430.44;15153587;19;20306;-60
2021/12/04 20:14:50;;;;;;;18.77;8.45;;;;;;;-0.45;100.00;99428.50;14491350;19;20647;-60
2021/12/04 20:19:52;;;;;;;16.90;8.27;;;;;;;-0.40;100.00;99436.41;14654168;19;20014;-60
2021/12/04 20:24:59;;;;;;;13.27;6.72;;;;;;;-0.46;100.00;99441.31;14804262;19;20512;-60
2021/12/04 20:31:12;;;;;;;14.65;6.72;;;;;;;-0.46;100.00;99433.59;14510990;19;20282;-60
2021/12/04 21:54:28;;;;;;;14.25;6.93;;;;;;;-0.56;100.00;99474.34;15299959;19;20040;-58
2021/12/04 22:10:19;;;;;;;17.33;7.53;;;;;;;-0.62;100.00;99474.09;15294462;19;20493;-58
2021/12/04 22:20:37;;;;;;;17.17;7.93;;;;;;;-0.68;100.00;99478.13;15298623;19;20034;-58
2021/12/04 22:26:21;;;;;;;14.98;8.05;;;;;;;-0.67;100.00;99490.19;15298933;19;20078;-59
2021/12/04 22:58:16;;;;;;;15.30;7.57;;;;;;;-0.63;100.00;99492.94;15296214;19;20590;-59
2021/12/04 23:04:08;;;;;;;19.48;9.65;;;;;;;-0.68;100.00;99493.56;15295395;19;20106;-59
2021/12/04 23:14:36;;;;;;;13.57;6.97;;;;;;;-0.67;100.00;99514.19;15295534;19;19922;-58
2021/12/04 23:41:39;;;;;;;17.55;8.32;;;;;;;-0.59;100.00;99510.22;15293101;19;20014;-60
